| time (UTC) | temp C | wind direction | speed KPH | gust KPH | rain 1hr cm | rain 24hr cm | rain mn cm | humidity % | barometer mb |
| 20260906225821 | 21 | 176 | 37.0 | 56.3 | 0.00 | 0.00 | 0.00 | 18 | 29.5 |
| 20260906225321 | 22 | 179 | 33.8 | 43.5 | 0.00 | 0.00 | 0.00 | 18 | 29.5 |
| 20260906224821 | 22 | 173 | 33.8 | 41.8 | 0.00 | 0.00 | 0.00 | 18 | 29.5 |
| 20260906224320 | 22 | 174 | 33.8 | 49.9 | 0.00 | 0.00 | 0.00 | 17 | 29.5 |
| 20260906223820 | 23 | 174 | 33.8 | 46.7 | 0.00 | 0.00 | 0.00 | 16 | 29.5 |
| 20260906223320 | 22 | 178 | 38.6 | 51.5 | 0.00 | 0.00 | 0.00 | 18 | 29.5 |
| 20260906222821 | 22 | 180 | 35.4 | 51.5 | 0.00 | 0.00 | 0.00 | 17 | 29.5 |
| 20260906221820 | 22 | 180 | 33.8 | 43.5 | 0.00 | 0.00 | 0.00 | 18 | 29.5 |
| 20260906221321 | 23 | 180 | 32.2 | 45.1 | 0.00 | 0.00 | 0.00 | 17 | 29.5 |
| 20260906220821 | 23 | 176 | 29.0 | 40.2 | 0.00 | 0.00 | 0.00 | 18 | 29.5 |
| 20260906220321 | 22 | 180 | 29.0 | 43.5 | 0.00 | 0.00 | 0.00 | 17 | 29.5 |
| 20260906215820 | 23 | 181 | 30.6 | 41.8 | 0.00 | 0.00 | 0.00 | 17 | 29.5 |
| 20260906215320 | 22 | 182 | 32.2 | 41.8 | 0.00 | 0.00 | 0.00 | 17 | 29.5 |
| 20260906214820 | 23 | 195 | 37.0 | 45.1 | 0.00 | 0.00 | 0.00 | 17 | 29.5 |
| 20260906214320 | 23 | 186 | 33.8 | 45.1 | 0.00 | 0.00 | 0.00 | 17 | 29.5 |
| 20260906213820 | 23 | 191 | 27.4 | 41.8 | 0.00 | 0.00 | 0.00 | 16 | 29.5 |
| 20260906213320 | 23 | 182 | 32.2 | 40.2 | 0.00 | 0.00 | 0.00 | 16 | 29.5 |
| 20260906212821 | 23 | 179 | 32.2 | 53.1 | 0.00 | 0.00 | 0.00 | 15 | 29.5 |
| 20260906212320 | 23 | 179 | 37.0 | 49.9 | 0.00 | 0.00 | 0.00 | 15 | 29.5 |
| 20260906211820 | 23 | 185 | 41.8 | 59.5 | 0.00 | 0.00 | 0.00 | 15 | 29.5 |
| 20260906211322 | 24 | 180 | 40.2 | 56.3 | 0.00 | 0.00 | 0.00 | 14 | 29.5 |
| 20260906210821 | 23 | 190 | 41.8 | 57.9 | 0.00 | 0.00 | 0.00 | 14 | 29.5 |
| 20260906210321 | 23 | 188 | 41.8 | 61.2 | 0.00 | 0.00 | 0.00 | 15 | 29.5 |
| 20260906205821 | 23 | 184 | 45.1 | 62.8 | 0.00 | 0.00 | 0.00 | 14 | 29.5 |
| 20260906205321 | 23 | 190 | 41.8 | 56.3 | 0.00 | 0.00 | 0.00 | 15 | 29.5 |
| 20260906204820 | 23 | 189 | 43.5 | 59.5 | 0.00 | 0.00 | 0.00 | 14 | 29.5 |
| 20260906204322 | 24 | 186 | 43.5 | 56.3 | 0.00 | 0.00 | 0.00 | 14 | 29.5 |
| 20260906203321 | 25 | 186 | 43.5 | 56.3 | 0.00 | 0.00 | 0.00 | 13 | 29.4 |
| 20260906202821 | 24 | 200 | 40.2 | 48.3 | 0.00 | 0.00 | 0.00 | 14 | 29.5 |
| 20260906202320 | 23 | 197 | 41.8 | 53.1 | 0.00 | 0.00 | 0.00 | 14 | 29.5 |
| 20260906201820 | 23 | 196 | 48.3 | 57.9 | 0.00 | 0.00 | 0.00 | 13 | 29.5 |
| 20260906200821 | 23 | 193 | 45.1 | 57.9 | 0.00 | 0.00 | 0.00 | 13 | 29.5 |
| 20260906200320 | 23 | 190 | 41.8 | 53.1 | 0.00 | 0.00 | 0.00 | 13 | 29.5 |
| 20260906195821 | 24 | 189 | 45.1 | 54.7 | 0.00 | 0.00 | 0.00 | 14 | 29.5 |
| 20260906195320 | 23 | 200 | 37.0 | 53.1 | 0.00 | 0.00 | 0.00 | 13 | 29.5 |
| 20260906194821 | 23 | 190 | 40.2 | 54.7 | 0.00 | 0.00 | 0.00 | 14 | 29.5 |
| 20260906194321 | 23 | 202 | 37.0 | 53.1 | 0.00 | 0.00 | 0.00 | 14 | 29.5 |
| 20260906193821 | 23 | 180 | 40.2 | 57.9 | 0.00 | 0.00 | 0.00 | 14 | 29.5 |
| 20260906192821 | 23 | 187 | 40.2 | 57.9 | 0.00 | 0.00 | 0.00 | 14 | 29.5 |
| 20260906192321 | 22 | 191 | 37.0 | 48.3 | 0.00 | 0.00 | 0.00 | 15 | 29.5 |
| 20260906191821 | 23 | 192 | 41.8 | 54.7 | 0.00 | 0.00 | 0.00 | 15 | 29.5 |
| 20260906191320 | 22 | 187 | 38.6 | 49.9 | 0.00 | 0.00 | 0.00 | 15 | 29.5 |
| 20260906190820 | 22 | 191 | 43.5 | 54.7 | 0.00 | 0.00 | 0.00 | 13 | 29.5 |
| 20260906190321 | 22 | 193 | 37.0 | 46.7 | 0.00 | 0.00 | 0.00 | 15 | 29.5 |
| 20260906185320 | 22 | 181 | 37.0 | 51.5 | 0.00 | 0.00 | 0.00 | 14 | 29.5 |
| 20260906184821 | 22 | 192 | 35.4 | 56.3 | 0.00 | 0.00 | 0.00 | 15 | 29.5 |
| 20260906184321 | 22 | 179 | 29.0 | 49.9 | 0.00 | 0.00 | 0.00 | 18 | 29.6 |
| 20260906183820 | 22 | 181 | 32.2 | 49.9 | 0.00 | 0.00 | 0.00 | 16 | 29.6 |
| 20260906183320 | 22 | 179 | 20.9 | 38.6 | 0.00 | 0.00 | 0.00 | 19 | 29.6 |
| 20260906182320 | 22 | 186 | 17.7 | 29.0 | 0.00 | 0.00 | 0.00 | 20 | 29.6 |
| 20260906181321 | 21 | 200 | 16.1 | 22.5 | 0.00 | 0.00 | 0.00 | 24 | 29.6 |
| 20260906180821 | 21 | 185 | 14.5 | 20.9 | 0.00 | 0.00 | 0.00 | 24 | 29.6 |
| 20260906180320 | 21 | 181 | 14.5 | 22.5 | 0.00 | 0.00 | 0.00 | 22 | 29.6 |
| 20260906175844 | 21 | 180 | 17.7 | 25.7 | 0.00 | 0.00 | 0.00 | 20 | 29.6 |
| 20260906175321 | 20 | 177 | 17.7 | 25.7 | 0.00 | 0.00 | 0.00 | 21 | 29.6 |
| 20260906174820 | 20 | 180 | 16.1 | 20.9 | 0.00 | 0.00 | 0.00 | 28 | 29.6 |
| 20260906174320 | 20 | 179 | 16.1 | 24.1 | 0.00 | 0.00 | 0.00 | 23 | 29.6 |
| 20260906173821 | 20 | 176 | 16.1 | 19.3 | 0.00 | 0.00 | 0.00 | 21 | 29.6 |
| 20260906173322 | 20 | 177 | 14.5 | 19.3 | 0.00 | 0.00 | 0.00 | 22 | 29.6 |
| 20260906172821 | 20 | 175 | 16.1 | 19.3 | 0.00 | 0.00 | 0.00 | 22 | 29.6 |
| 20260906172321 | 20 | 170 | 14.5 | 19.3 | 0.00 | 0.00 | 0.00 | 22 | 29.6 |
| 20260906171821 | 19 | 181 | 14.5 | 19.3 | 0.00 | 0.00 | 0.00 | 26 | 29.7 |
| 20260906171320 | 20 | 173 | 17.7 | 20.9 | 0.00 | 0.00 | 0.00 | 21 | 29.6 |
| 20260906170821 | 19 | 163 | 12.9 | 19.3 | 0.00 | 0.00 | 0.00 | 22 | 29.7 |
| 20260906170320 | 19 | 150 | 17.7 | 24.1 | 0.00 | 0.00 | 0.00 | 21 | 29.7 |
| 20260906165821 | 18 | 162 | 9.7 | 17.7 | 0.00 | 0.00 | 0.00 | 30 | 29.7 |
| 20260906165320 | 19 | 142 | 12.9 | 20.9 | 0.00 | 0.00 | 0.00 | 28 | 29.7 |
| 20260906164820 | 18 | 142 | 11.3 | 14.5 | 0.00 | 0.00 | 0.00 | 25 | 29.7 |
| 20260906164320 | 17 | 141 | 9.7 | 14.5 | 0.00 | 0.00 | 0.00 | 27 | 29.7 |
| 20260906163821 | 16 | 164 | 11.3 | 16.1 | 0.00 | 0.00 | 0.00 | 30 | 29.7 |
| 20260906163323 | 17 | 144 | 11.3 | 14.5 | 0.00 | 0.00 | 0.00 | 28 | 29.7 |
| 20260906162821 | 16 | 163 | 9.7 | 12.9 | 0.00 | 0.00 | 0.00 | 31 | 29.8 |
| 20260906161820 | 16 | 147 | 11.3 | 14.5 | 0.00 | 0.00 | 0.00 | 29 | 29.8 |
| 20260906161320 | 16 | 149 | 11.3 | 14.5 | 0.00 | 0.00 | 0.00 | 28 | 29.7 |
| 20260906160820 | 16 | 152 | 11.3 | 12.9 | 0.00 | 0.00 | 0.00 | 30 | 29.8 |
| 20260906160320 | 15 | 161 | 9.7 | 12.9 | 0.00 | 0.00 | 0.00 | 30 | 29.8 |
| 20260906155820 | 16 | 144 | 9.7 | 12.9 | 0.00 | 0.00 | 0.00 | 29 | 29.8 |
| 20260906155320 | 15 | 167 | 9.7 | 12.9 | 0.00 | 0.00 | 0.00 | 30 | 29.8 |
| 20260906154824 | 16 | 138 | 9.7 | 14.5 | 0.00 | 0.00 | 0.00 | 30 | 29.8 |
| 20260906154320 | 15 | 141 | 11.3 | 16.1 | 0.00 | 0.00 | 0.00 | 31 | 29.8 |
| 20260906153821 | 15 | 139 | 14.5 | 16.1 | 0.00 | 0.00 | 0.00 | 30 | 29.8 |
| 20260906153321 | 14 | 137 | 14.5 | 16.1 | 0.00 | 0.00 | 0.00 | 31 | 29.8 |
| 20260906152820 | 14 | 140 | 12.9 | 14.5 | 0.00 | 0.00 | 0.00 | 30 | 29.8 |
| 20260906152321 | 14 | 141 | 11.3 | 16.1 | 0.00 | 0.00 | 0.00 | 31 | 29.8 |
| 20260906151821 | 13 | 142 | 11.3 | 16.1 | 0.00 | 0.00 | 0.00 | 31 | 29.8 |
| 20260906151320 | 13 | 136 | 12.9 | 16.1 | 0.00 | 0.00 | 0.00 | 32 | 29.8 |
| 20260906150822 | 13 | 138 | 12.9 | 16.1 | 0.00 | 0.00 | 0.00 | 32 | 29.8 |
| 20260906150321 | 13 | 146 | 9.7 | 12.9 | 0.00 | 0.00 | 0.00 | 32 | 29.8 |
| 20260906145820 | 14 | 150 | 8.0 | 11.3 | 0.00 | 0.00 | 0.00 | 31 | 29.8 |
| 20260906145320 | 13 | 136 | 8.0 | 11.3 | 0.00 | 0.00 | 0.00 | 32 | 29.8 |
| 20260906144821 | 13 | 141 | 8.0 | 9.7 | 0.00 | 0.00 | 0.00 | 31 | 29.8 |
| 20260906144320 | 13 | 136 | 8.0 | 9.7 | 0.00 | 0.00 | 0.00 | 31 | 29.8 |
| 20260906143821 | 13 | 129 | 6.4 | 9.7 | 0.00 | 0.00 | 0.00 | 34 | 29.8 |
| 20260906143320 | 12 | 118 | 4.8 | 8.0 | 0.00 | 0.00 | 0.00 | 33 | 29.8 |
| 20260906142820 | 13 | 143 | 4.8 | 6.4 | 0.00 | 0.00 | 0.00 | 33 | 29.8 |
| 20260906142320 | 13 | 145 | 4.8 | 6.4 | 0.00 | 0.00 | 0.00 | 33 | 29.8 |
| 20260906141820 | 13 | 173 | 3.2 | 6.4 | 0.00 | 0.00 | 0.00 | 31 | 29.8 |
| 20260906141321 | 13 | 156 | 4.8 | 6.4 | 0.00 | 0.00 | 0.00 | 32 | 29.8 |
| 20260906140820 | 12 | 225 | 3.2 | 9.7 | 0.00 | 0.00 | 0.00 | 35 | 29.9 |
| 20260906140321 | 13 | 156 | 3.2 | 4.8 | 0.00 | 0.00 | 0.00 | 31 | 29.8 |
| 20260906135829 | 12 | 157 | 3.2 | 6.4 | 0.00 | 0.00 | 0.00 | 33 | 29.8 |
| 20260906135321 | 11 | 155 | 6.4 | 9.7 | 0.00 | 0.00 | 0.00 | 36 | 29.9 |
| 20260906134822 | 11 | 187 | 4.8 | 8.0 | 0.00 | 0.00 | 0.00 | 34 | 29.9 |
| 20260906134321 | 11 | 135 | 3.2 | 6.4 | 0.00 | 0.00 | 0.00 | 36 | 29.9 |
| 20260906133821 | 11 | 110 | 3.2 | 6.4 | 0.00 | 0.00 | 0.00 | 36 | 29.9 |
| 20260906133321 | 11 | 45 | 1.6 | 3.2 | 0.00 | 0.00 | 0.00 | 35 | 29.9 |
| 20260906132820 | 10 | 332 | 1.6 | 4.8 | 0.00 | 0.00 | 0.00 | 36 | 29.9 |
| 20260906132321 | 10 | 352 | 4.8 | 6.4 | 0.00 | 0.00 | 0.00 | 36 | 29.9 |
| 20260906131820 | 10 | 345 | 3.2 | 6.4 | 0.00 | 0.00 | 0.00 | 35 | 29.9 |
| 20260906131320 | 10 | 2 | 3.2 | 9.7 | 0.00 | 0.00 | 0.00 | 36 | 29.9 |
| 20260906130821 | 10 | 345 | 4.8 | 6.4 | 0.00 | 0.00 | 0.00 | 37 | 29.9 |
| 20260906130322 | 10 | 352 | 3.2 | 6.4 | 0.00 | 0.00 | 0.00 | 36 | 29.9 |
| 20260906125820 | 10 | 336 | 3.2 | 6.4 | 0.00 | 0.00 | 0.00 | 37 | 29.9 |
| 20260906125321 | 10 | 347 | 3.2 | 4.8 | 0.00 | 0.00 | 0.00 | 36 | 29.9 |
| 20260906124820 | 10 | 326 | 3.2 | 4.8 | 0.00 | 0.00 | 0.00 | 36 | 29.9 |
| 20260906124320 | 10 | 327 | 1.6 | 4.8 | 0.00 | 0.00 | 0.00 | 36 | 29.9 |
| 20260906123820 | 10 | 7 | 3.2 | 4.8 | 0.00 | 0.00 | 0.00 | 36 | 29.9 |
| 20260906123321 | 10 | 351 | 3.2 | 6.4 | 0.00 | 0.00 | 0.00 | 36 | 29.9 |
| 20260906122820 | 10 | 248 | 1.6 | 4.8 | 0.00 | 0.00 | 0.00 | 36 | 29.9 |
| 20260906122321 | 10 | 187 | 3.2 | 6.4 | 0.00 | 0.00 | 0.00 | 36 | 29.9 |
| 20260906121821 | 11 | 191 | 3.2 | 8.0 | 0.00 | 0.00 | 0.00 | 35 | 29.9 |
| 20260906121321 | 11 | 135 | 4.8 | 6.4 | 0.00 | 0.00 | 0.00 | 33 | 29.9 |
| 20260906120820 | 11 | 138 | 4.8 | 6.4 | 0.00 | 0.00 | 0.00 | 34 | 29.9 |
| 20260906120320 | 10 | 177 | 6.4 | 9.7 | 0.00 | 0.00 | 0.00 | 36 | 29.9 |
| 20260906115820 | 11 | 149 | 6.4 | 9.7 | 0.00 | 0.00 | 0.00 | 35 | 29.9 |
| 20260906115321 | 10 | 151 | 6.4 | 9.7 | 0.00 | 0.00 | 0.00 | 35 | 29.9 |
| 20260906114820 | 10 | 180 | 6.4 | 8.0 | 0.00 | 0.00 | 0.00 | 37 | 29.9 |
| 20260906114321 | 10 | 156 | 8.0 | 11.3 | 0.00 | 0.00 | 0.00 | 36 | 29.9 |
| 20260906113821 | 10 | 166 | 6.4 | 11.3 | 0.00 | 0.00 | 0.00 | 36 | 29.9 |
| 20260906113321 | 10 | 179 | 8.0 | 9.7 | 0.00 | 0.00 | 0.00 | 36 | 29.9 |
| 20260906112820 | 11 | 156 | 8.0 | 11.3 | 0.00 | 0.00 | 0.00 | 35 | 29.9 |
| 20260906112320 | 10 | 178 | 8.0 | 11.3 | 0.00 | 0.00 | 0.00 | 36 | 29.9 |
| 20260906111820 | 11 | 144 | 9.7 | 12.9 | 0.00 | 0.00 | 0.00 | 35 | 29.9 |
| 20260906111406 | 10 | 171 | 8.0 | 12.9 | 0.00 | 0.00 | 0.00 | 35 | 29.9 |
| 20260906110821 | 10 | 175 | 9.7 | 11.3 | 0.00 | 0.00 | 0.00 | 36 | 29.9 |
| 20260906110321 | 11 | 174 | 9.7 | 12.9 | 0.00 | 0.00 | 0.00 | 35 | 29.9 |
| 20260906105821 | 11 | 158 | 11.3 | 12.9 | 0.00 | 0.00 | 0.00 | 35 | 29.9 |
| 20260906105320 | 11 | 173 | 9.7 | 12.9 | 0.00 | 0.00 | 0.00 | 35 | 29.9 |
| 20260906104820 | 11 | 180 | 9.7 | 12.9 | 0.00 | 0.00 | 0.00 | 35 | 29.9 |
| 20260906104321 | 11 | 171 | 9.7 | 11.3 | 0.00 | 0.00 | 0.00 | 35 | 29.9 |
| 20260906103821 | 11 | 164 | 9.7 | 12.9 | 0.00 | 0.00 | 0.00 | 34 | 29.9 |
| 20260906103321 | 11 | 142 | 8.0 | 11.3 | 0.00 | 0.00 | 0.00 | 33 | 29.9 |
| 20260906102820 | 11 | 177 | 6.4 | 11.3 | 0.00 | 0.00 | 0.00 | 34 | 29.9 |
| 20260906102321 | 11 | 178 | 6.4 | 11.3 | 0.00 | 0.00 | 0.00 | 34 | 29.9 |
| 20260906101821 | 11 | 179 | 8.0 | 12.9 | 0.00 | 0.00 | 0.00 | 34 | 29.9 |
| 20260906101320 | 11 | 178 | 9.7 | 12.9 | 0.00 | 0.00 | 0.00 | 34 | 29.9 |
| 20260906100824 | 11 | 158 | 8.0 | 12.9 | 0.00 | 0.00 | 0.00 | 32 | 29.9 |
| 20260906100320 | 12 | 180 | 4.8 | 8.0 | 0.00 | 0.00 | 0.00 | 31 | 29.8 |
| 20260906095821 | 11 | 180 | 6.4 | 9.7 | 0.00 | 0.00 | 0.00 | 33 | 29.9 |
| 20260906095321 | 12 | 150 | 4.8 | 8.0 | 0.00 | 0.00 | 0.00 | 30 | 29.8 |
| 20260906094321 | 11 | 156 | 6.4 | 9.7 | 0.00 | 0.00 | 0.00 | 33 | 29.9 |
| 20260906093821 | 11 | 183 | 4.8 | 9.7 | 0.00 | 0.00 | 0.00 | 34 | 29.9 |
| 20260906093321 | 11 | 78 | 3.2 | 4.8 | 0.00 | 0.00 | 0.00 | 32 | 29.8 |
| 20260906092820 | 12 | 211 | 1.6 | 4.8 | 0.00 | 0.00 | 0.00 | 31 | 29.8 |
| 20260906092321 | 12 | 16 | 3.2 | 6.4 | 0.00 | 0.00 | 0.00 | 29 | 29.8 |
| 20260906091824 | 12 | 294 | 3.2 | 6.4 | 0.00 | 0.00 | 0.00 | 30 | 29.8 |
| 20260906091321 | 12 | 3 | 6.4 | 8.0 | 0.00 | 0.00 | 0.00 | 29 | 29.8 |
| 20260906090821 | 12 | 358 | 3.2 | 6.4 | 0.00 | 0.00 | 0.00 | 30 | 29.8 |
| 20260906090321 | 12 | 4.8 | 8.0 | 0.00 | 0.00 | 0.00 | 30 | 29.8 | |
| 20260906085821 | 12 | 4.8 | 6.4 | 0.00 | 0.00 | 0.00 | 30 | 29.8 | |
| 20260906085320 | 12 | 6.4 | 8.0 | 0.00 | 0.00 | 0.00 | 30 | 29.8 | |
| 20260906084820 | 12 | 284 | 1.6 | 4.8 | 0.00 | 0.00 | 0.00 | 29 | 29.8 |
| 20260906084320 | 12 | 6.4 | 9.7 | 0.00 | 0.00 | 0.00 | 29 | 29.8 | |
| 20260906083820 | 12 | 6.4 | 8.0 | 0.00 | 0.00 | 0.00 | 30 | 29.8 | |
| 20260906083321 | 12 | 6.4 | 9.7 | 0.00 | 0.00 | 0.00 | 30 | 29.8 | |
| 20260906082821 | 12 | 1 | 8.0 | 9.7 | 0.00 | 0.00 | 0.00 | 30 | 29.8 |
| 20260906082321 | 12 | 359 | 6.4 | 9.7 | 0.00 | 0.00 | 0.00 | 30 | 29.8 |
| 20260906081820 | 12 | 328 | 6.4 | 9.7 | 0.00 | 0.00 | 0.00 | 31 | 29.8 |
| 20260906081321 | 12 | 357 | 6.4 | 9.7 | 0.00 | 0.00 | 0.00 | 32 | 29.8 |
| 20260906080821 | 12 | 354 | 8.0 | 9.7 | 0.00 | 0.00 | 0.00 | 31 | 29.8 |
| 20260906080320 | 12 | 349 | 6.4 | 9.7 | 0.00 | 0.00 | 0.00 | 31 | 29.8 |
| 20260906075820 | 12 | 321 | 4.8 | 6.4 | 0.00 | 0.00 | 0.00 | 30 | 29.8 |
| 20260906075322 | 12 | 344 | 4.8 | 8.0 | 0.00 | 0.00 | 0.00 | 29 | 29.8 |
| 20260906074821 | 13 | 344 | 4.8 | 6.4 | 0.00 | 0.00 | 0.00 | 29 | 29.8 |
| 20260906074320 | 13 | 320 | 4.8 | 8.0 | 0.00 | 0.00 | 0.00 | 28 | 29.8 |
| 20260906073820 | 13 | 295 | 3.2 | 6.4 | 0.00 | 0.00 | 0.00 | 27 | 29.8 |
| 20260906073320 | 13 | 270 | 1.6 | 4.8 | 0.00 | 0.00 | 0.00 | 28 | 29.8 |
| 20260906072820 | 13 | 1.6 | 3.2 | 0.00 | 0.00 | 0.00 | 28 | 29.8 | |
| 20260906072321 | 13 | 3.2 | 4.8 | 0.00 | 0.00 | 0.00 | 27 | 29.8 | |
| 20260906071821 | 13 | 4 | 3.2 | 6.4 | 0.00 | 0.00 | 0.00 | 27 | 29.8 |
| 20260906071320 | 13 | 2 | 3.2 | 6.4 | 0.00 | 0.00 | 0.00 | 27 | 29.8 |
| 20260906070820 | 14 | 21 | 4.8 | 8.0 | 0.00 | 0.00 | 0.00 | 26 | 29.8 |
| 20260906070321 | 14 | 10 | 3.2 | 6.4 | 0.00 | 0.00 | 0.00 | 25 | 29.8 |
| 20260906065820 | 14 | 263 | 1.6 | 4.8 | 0.00 | 0.00 | 0.00 | 26 | 29.8 |
| 20260906065321 | 14 | 222 | 3.2 | 6.4 | 0.00 | 0.00 | 0.00 | 26 | 29.8 |
| 20260906064820 | 14 | 225 | 4.8 | 8.0 | 0.00 | 0.00 | 0.00 | 26 | 29.8 |
| 20260906064320 | 14 | 235 | 4.8 | 8.0 | 0.00 | 0.00 | 0.00 | 26 | 29.8 |
| 20260906063820 | 15 | 264 | 3.2 | 4.8 | 0.00 | 0.00 | 0.00 | 25 | 29.8 |
| 20260906063320 | 15 | 225 | 0.0 | 4.8 | 0.00 | 0.00 | 0.00 | 24 | 29.8 |
| 20260906062821 | 15 | 212 | 3.2 | 4.8 | 0.00 | 0.00 | 0.00 | 24 | 29.8 |
| 20260906062321 | 15 | 305 | 1.6 | 3.2 | 0.00 | 0.00 | 0.00 | 23 | 29.8 |
| 20260906061820 | 15 | 213 | 3.2 | 6.4 | 0.00 | 0.00 | 0.00 | 23 | 29.8 |
| 20260906061321 | 16 | 177 | 4.8 | 6.4 | 0.00 | 0.00 | 0.00 | 22 | 29.8 |
| 20260906060821 | 16 | 178 | 6.4 | 9.7 | 0.00 | 0.00 | 0.00 | 22 | 29.7 |
| 20260906060320 | 16 | 178 | 8.0 | 9.7 | 0.00 | 0.00 | 0.00 | 22 | 29.7 |
| 20260906055820 | 16 | 179 | 6.4 | 8.0 | 0.00 | 0.00 | 0.00 | 22 | 29.7 |
| 20260906055321 | 16 | 180 | 6.4 | 8.0 | 0.00 | 0.00 | 0.00 | 22 | 29.7 |
| 20260906054820 | 16 | 187 | 6.4 | 9.7 | 0.00 | 0.00 | 0.00 | 21 | 29.7 |
| 20260906054320 | 17 | 157 | 9.7 | 12.9 | 0.00 | 0.00 | 0.00 | 21 | 29.7 |
| 20260906053822 | 17 | 143 | 9.7 | 12.9 | 0.00 | 0.00 | 0.00 | 21 | 29.7 |
| 20260906053320 | 17 | 149 | 9.7 | 12.9 | 0.00 | 0.00 | 0.00 | 21 | 29.7 |
| 20260906052821 | 17 | 171 | 11.3 | 12.9 | 0.00 | 0.00 | 0.00 | 21 | 29.7 |
| 20260906052322 | 17 | 179 | 14.5 | 17.7 | 0.00 | 0.00 | 0.00 | 21 | 29.7 |
| 20260906051821 | 17 | 178 | 12.9 | 16.1 | 0.00 | 0.00 | 0.00 | 21 | 29.7 |
| 20260906051320 | 17 | 179 | 12.9 | 14.5 | 0.00 | 0.00 | 0.00 | 21 | 29.7 |
| 20260906050821 | 17 | 179 | 14.5 | 16.1 | 0.00 | 0.00 | 0.00 | 21 | 29.7 |
| 20260906050321 | 17 | 163 | 12.9 | 20.9 | 0.00 | 0.00 | 0.00 | 20 | 29.7 |
| 20260906045821 | 17 | 178 | 12.9 | 16.1 | 0.00 | 0.00 | 0.00 | 20 | 29.7 |
| 20260906045320 | 17 | 170 | 11.3 | 16.1 | 0.00 | 0.00 | 0.00 | 21 | 29.7 |
| 20260906044820 | 17 | 174 | 11.3 | 12.9 | 0.00 | 0.00 | 0.00 | 21 | 29.7 |
| 20260906044321 | 17 | 180 | 11.3 | 12.9 | 0.00 | 0.00 | 0.00 | 20 | 29.7 |
| 20260906043820 | 17 | 175 | 14.5 | 19.3 | 0.00 | 0.00 | 0.00 | 20 | 29.7 |
| 20260906043320 | 17 | 164 | 14.5 | 17.7 | 0.00 | 0.00 | 0.00 | 20 | 29.7 |
| 20260906042820 | 17 | 137 | 16.1 | 17.7 | 0.00 | 0.00 | 0.00 | 20 | 29.7 |
| 20260906042321 | 17 | 155 | 16.1 | 19.3 | 0.00 | 0.00 | 0.00 | 20 | 29.7 |
| 20260906041821 | 17 | 179 | 12.9 | 17.7 | 0.00 | 0.00 | 0.00 | 20 | 29.7 |
| 20260906041320 | 17 | 179 | 17.7 | 22.5 | 0.00 | 0.00 | 0.00 | 20 | 29.7 |
| 20260906040821 | 17 | 179 | 19.3 | 22.5 | 0.00 | 0.00 | 0.00 | 20 | 29.7 |
| 20260906035820 | 17 | 180 | 12.9 | 19.3 | 0.00 | 0.00 | 0.00 | 20 | 29.7 |
| 20260906035321 | 17 | 179 | 14.5 | 20.9 | 0.00 | 0.00 | 0.00 | 20 | 29.7 |
| 20260906034820 | 17 | 169 | 14.5 | 19.3 | 0.00 | 0.00 | 0.00 | 20 | 29.7 |
| 20260906034321 | 17 | 187 | 12.9 | 22.5 | 0.00 | 0.00 | 0.00 | 20 | 29.7 |
| 20260906033820 | 17 | 180 | 14.5 | 20.9 | 0.00 | 0.00 | 0.00 | 20 | 29.7 |
| 20260906033320 | 17 | 165 | 14.5 | 19.3 | 0.00 | 0.00 | 0.00 | 20 | 29.7 |
| 20260906032820 | 17 | 151 | 12.9 | 19.3 | 0.00 | 0.00 | 0.00 | 20 | 29.7 |
| 20260906032321 | 17 | 199 | 9.7 | 20.9 | 0.00 | 0.00 | 0.00 | 19 | 29.7 |
| 20260906031821 | 17 | 167 | 16.1 | 24.1 | 0.00 | 0.00 | 0.00 | 20 | 29.7 |
| 20260906031321 | 17 | 135 | 9.7 | 20.9 | 0.00 | 0.00 | 0.00 | 19 | 29.7 |
| 20260906030820 | 18 | 172 | 9.7 | 20.9 | 0.00 | 0.00 | 0.00 | 19 | 29.7 |
| 20260906030320 | 18 | 201 | 19.3 | 27.4 | 0.00 | 0.00 | 0.00 | 19 | 29.7 |
| 20260906025821 | 17 | 183 | 17.7 | 30.6 | 0.00 | 0.00 | 0.00 | 19 | 29.7 |
| 20260906025320 | 18 | 188 | 16.1 | 30.6 | 0.00 | 0.00 | 0.00 | 19 | 29.7 |
| 20260906024821 | 18 | 204 | 19.3 | 32.2 | 0.00 | 0.00 | 0.00 | 19 | 29.7 |
| 20260906024320 | 18 | 204 | 16.1 | 33.8 | 0.00 | 0.00 | 0.00 | 19 | 29.7 |
| 20260906023821 | 17 | 193 | 16.1 | 22.5 | 0.00 | 0.00 | 0.00 | 20 | 29.7 |
| 20260906023320 | 18 | 183 | 16.1 | 35.4 | 0.00 | 0.00 | 0.00 | 19 | 29.7 |
| 20260906022820 | 18 | 214 | 16.1 | 22.5 | 0.00 | 0.00 | 0.00 | 19 | 29.7 |
| 20260906022320 | 18 | 211 | 17.7 | 33.8 | 0.00 | 0.00 | 0.00 | 18 | 29.7 |
| 20260906021820 | 18 | 250 | 14.5 | 27.4 | 0.00 | 0.00 | 0.00 | 19 | 29.7 |
| 20260906021321 | 18 | 248 | 17.7 | 32.2 | 0.00 | 0.00 | 0.00 | 19 | 29.7 |
| 20260906020821 | 18 | 233 | 20.9 | 30.6 | 0.00 | 0.00 | 0.00 | 18 | 29.6 |
| 20260906020320 | 18 | 243 | 19.3 | 29.0 | 0.00 | 0.00 | 0.00 | 18 | 29.6 |
| 20260906015820 | 18 | 252 | 19.3 | 27.4 | 0.00 | 0.00 | 0.00 | 19 | 29.6 |
| 20260906015320 | 19 | 236 | 16.1 | 24.1 | 0.00 | 0.00 | 0.00 | 18 | 29.6 |
| 20260906014821 | 19 | 225 | 14.5 | 22.5 | 0.00 | 0.00 | 0.00 | 18 | 29.6 |
| 20260906014320 | 19 | 216 | 14.5 | 30.6 | 0.00 | 0.00 | 0.00 | 18 | 29.6 |
| 20260906013357 | 20 | 245 | 17.7 | 25.7 | 0.00 | 0.00 | 0.00 | 17 | 29.6 |
| 20260906012820 | 21 | 249 | 17.7 | 25.7 | 0.00 | 0.00 | 0.00 | 18 | 29.6 |
| 20260906012321 | 21 | 231 | 17.7 | 25.7 | 0.00 | 0.00 | 0.00 | 17 | 29.6 |
| 20260906011821 | 21 | 235 | 16.1 | 22.5 | 0.00 | 0.00 | 0.00 | 17 | 29.6 |
| 20260906011320 | 22 | 234 | 16.1 | 22.5 | 0.00 | 0.00 | 0.00 | 17 | 29.6 |
| 20260906010821 | 22 | 228 | 19.3 | 25.7 | 0.00 | 0.00 | 0.00 | 16 | 29.6 |
| 20260906010322 | 22 | 234 | 16.1 | 20.9 | 0.00 | 0.00 | 0.00 | 17 | 29.6 |
| 20260906005821 | 23 | 238 | 16.1 | 20.9 | 0.00 | 0.00 | 0.00 | 17 | 29.6 |
| 20260906005322 | 23 | 194 | 22.5 | 30.6 | 0.00 | 0.00 | 0.00 | 15 | 29.5 |
| 20260906004820 | 23 | 205 | 24.1 | 30.6 | 0.00 | 0.00 | 0.00 | 14 | 29.5 |
| 20260906004320 | 23 | 197 | 22.5 | 30.6 | 0.00 | 0.00 | 0.00 | 14 | 29.5 |
| 20260906003820 | 23 | 200 | 24.1 | 30.6 | 0.00 | 0.00 | 0.00 | 14 | 29.5 |
| 20260906003320 | 24 | 181 | 27.4 | 33.8 | 0.00 | 0.00 | 0.00 | 13 | 29.5 |
| 20260906002820 | 23 | 198 | 27.4 | 35.4 | 0.00 | 0.00 | 0.00 | 14 | 29.5 |
| 20260906002321 | 23 | 208 | 27.4 | 32.2 | 0.00 | 0.00 | 0.00 | 14 | 29.5 |
| 20260906001821 | 24 | 206 | 30.6 | 37.0 | 0.00 | 0.00 | 0.00 | 13 | 29.5 |
| 20260906001321 | 24 | 186 | 29.0 | 35.4 | 0.00 | 0.00 | 0.00 | 13 | 29.5 |
| 20260906000821 | 25 | 181 | 30.6 | 40.2 | 0.00 | 0.00 | 0.00 | 13 | 29.5 |
| 20260906000320 | 24 | 187 | 37.0 | 51.5 | 0.00 | 0.00 | 0.00 | 13 | 29.5 |
| 20260905235820 | 25 | 201 | 29.0 | 40.2 | 0.00 | 0.00 | 0.00 | 13 | 29.5 |
| 20260905235321 | 23 | 202 | 27.4 | 35.4 | 0.00 | 0.00 | 0.00 | 13 | 29.5 |
| 20260905234821 | 23 | 209 | 25.7 | 32.2 | 0.00 | 0.00 | 0.00 | 14 | 29.5 |
| 20260905234321 | 24 | 209 | 33.8 | 43.5 | 0.00 | 0.00 | 0.00 | 13 | 29.5 |
| 20260905233820 | 25 | 189 | 32.2 | 41.8 | 0.00 | 0.00 | 0.00 | 13 | 29.5 |
| 20260905233321 | 25 | 199 | 33.8 | 45.1 | 0.00 | 0.00 | 0.00 | 13 | 29.5 |
| 20260905232820 | 25 | 190 | 37.0 | 46.7 | 0.00 | 0.00 | 0.00 | 13 | 29.5 |
| 20260905232321 | 25 | 181 | 38.6 | 54.7 | 0.00 | 0.00 | 0.00 | 12 | 29.5 |
| 20260905231820 | 25 | 184 | 40.2 | 54.7 | 0.00 | 0.00 | 0.00 | 12 | 29.5 |
| 20260905231320 | 25 | 178 | 38.6 | 54.7 | 0.00 | 0.00 | 0.00 | 12 | 29.5 |
| 20260905230821 | 25 | 173 | 29.0 | 40.2 | 0.00 | 0.00 | 0.00 | 12 | 29.5 |
| 20260905230321 | 24 | 169 | 35.4 | 48.3 | 0.00 | 0.00 | 0.00 | 12 | 29.5 |